sensor_id;sensor_type;location;lat;lon;timestamp;temperature;humidity
23083;DHT22;11709;52.420;10.538;2022-08-19T00:03:13;21.00;99.90
23083;DHT22;11709;52.420;10.538;2022-08-19T00:07:16;21.00;99.90
23083;DHT22;11709;52.420;10.538;2022-08-19T00:11:18;20.90;99.90
23083;DHT22;11709;52.420;10.538;2022-08-19T00:15:22;20.80;99.90
23083;DHT22;11709;52.420;10.538;2022-08-19T00:19:24;20.80;99.90
23083;DHT22;11709;52.420;10.538;2022-08-19T00:23:27;20.70;99.90
23083;DHT22;11709;52.420;10.538;2022-08-19T00:27:30;20.60;99.90
23083;DHT22;11709;52.420;10.538;2022-08-19T00:31:32;20.60;99.90
23083;DHT22;11709;52.420;10.538;2022-08-19T00:35:35;20.60;99.90
23083;DHT22;11709;52.420;10.538;2022-08-19T00:39:39;20.70;99.90
23083;DHT22;11709;52.420;10.538;2022-08-19T00:43:42;20.60;99.90
23083;DHT22;11709;52.420;10.538;2022-08-19T00:47:45;20.60;99.90
23083;DHT22;11709;52.420;10.538;2022-08-19T00:51:50;20.60;99.90
23083;DHT22;11709;52.420;10.538;2022-08-19T00:55:55;20.50;99.90
23083;DHT22;11709;52.420;10.538;2022-08-19T00:59:59;20.50;99.90
23083;DHT22;11709;52.420;10.538;2022-08-19T01:04:04;20.50;99.90
23083;DHT22;11709;52.420;10.538;2022-08-19T01:08:07;20.50;99.90
23083;DHT22;11709;52.420;10.538;2022-08-19T01:12:10;20.50;99.90
23083;DHT22;11709;52.420;10.538;2022-08-19T01:16:13;20.60;99.90
23083;DHT22;11709;52.420;10.538;2022-08-19T01:20:19;20.50;99.90
23083;DHT22;11709;52.420;10.538;2022-08-19T01:24:22;20.60;99.90
23083;DHT22;11709;52.420;10.538;2022-08-19T01:28:27;20.50;99.90
23083;DHT22;11709;52.420;10.538;2022-08-19T01:32:29;20.40;99.90
23083;DHT22;11709;52.420;10.538;2022-08-19T01:36:39;20.30;99.90
23083;DHT22;11709;52.420;10.538;2022-08-19T01:40:39;20.30;99.90
23083;DHT22;11709;52.420;10.538;2022-08-19T01:44:43;20.30;99.90
23083;DHT22;11709;52.420;10.538;2022-08-19T01:48:46;20.30;99.90
23083;DHT22;11709;52.420;10.538;2022-08-19T01:52:49;20.10;99.90
23083;DHT22;11709;52.420;10.538;2022-08-19T01:56:54;20.00;99.90
23083;DHT22;11709;52.420;10.538;2022-08-19T02:00:57;19.90;99.90
23083;DHT22;11709;52.420;10.538;2022-08-19T02:05:00;19.80;99.90
23083;DHT22;11709;52.420;10.538;2022-08-19T02:09:04;19.80;99.90
23083;DHT22;11709;52.420;10.538;2022-08-19T02:13:07;19.70;99.90
23083;DHT22;11709;52.420;10.538;2022-08-19T02:17:10;19.60;99.90
23083;DHT22;11709;52.420;10.538;2022-08-19T02:21:12;19.60;99.90
23083;DHT22;11709;52.420;10.538;2022-08-19T02:25:17;19.50;99.90
23083;DHT22;11709;52.420;10.538;2022-08-19T02:29:19;19.50;99.90
23083;DHT22;11709;52.420;10.538;2022-08-19T02:33:22;19.40;99.90
23083;DHT22;11709;52.420;10.538;2022-08-19T02:37:24;19.30;99.90
23083;DHT22;11709;52.420;10.538;2022-08-19T02:41:45;19.30;99.90
23083;DHT22;11709;52.420;10.538;2022-08-19T02:45:47;19.30;99.90
23083;DHT22;11709;52.420;10.538;2022-08-19T02:49:52;19.30;99.90
23083;DHT22;11709;52.420;10.538;2022-08-19T02:53:54;19.20;99.90
23083;DHT22;11709;52.420;10.538;2022-08-19T02:57:57;19.20;99.90
23083;DHT22;11709;52.420;10.538;2022-08-19T03:01:59;19.20;99.90
23083;DHT22;11709;52.420;10.538;2022-08-19T03:06:10;19.20;99.90
23083;DHT22;11709;52.420;10.538;2022-08-19T03:10:14;19.10;99.90
23083;DHT22;11709;52.420;10.538;2022-08-19T03:14:17;19.10;99.90
23083;DHT22;11709;52.420;10.538;2022-08-19T03:18:19;19.00;99.90
23083;DHT22;11709;52.420;10.538;2022-08-19T03:22:22;19.10;99.90
23083;DHT22;11709;52.420;10.538;2022-08-19T03:26:24;19.10;99.90
23083;DHT22;11709;52.420;10.538;2022-08-19T03:30:27;19.10;99.90
23083;DHT22;11709;52.420;10.538;2022-08-19T03:34:31;19.10;99.90
23083;DHT22;11709;52.420;10.538;2022-08-19T03:38:37;19.00;99.90
23083;DHT22;11709;52.420;10.538;2022-08-19T03:42:40;18.90;99.90
23083;DHT22;11709;52.420;10.538;2022-08-19T03:46:43;18.80;99.90
23083;DHT22;11709;52.420;10.538;2022-08-19T03:50:46;18.80;99.90
23083;DHT22;11709;52.420;10.538;2022-08-19T03:54:49;18.80;99.90
23083;DHT22;11709;52.420;10.538;2022-08-19T03:58:52;18.70;99.90
23083;DHT22;11709;52.420;10.538;2022-08-19T04:02:55;18.70;99.90
23083;DHT22;11709;52.420;10.538;2022-08-19T04:06:58;18.70;99.90
23083;DHT22;11709;52.420;10.538;2022-08-19T04:11:00;18.60;99.90
23083;DHT22;11709;52.420;10.538;2022-08-19T04:15:03;18.60;99.90
23083;DHT22;11709;52.420;10.538;2022-08-19T04:19:07;18.60;99.90
23083;DHT22;11709;52.420;10.538;2022-08-19T04:23:10;18.60;99.90
23083;DHT22;11709;52.420;10.538;2022-08-19T04:27:13;18.60;99.90
23083;DHT22;11709;52.420;10.538;2022-08-19T04:31:18;18.50;99.90
23083;DHT22;11709;52.420;10.538;2022-08-19T04:35:21;18.40;99.90
23083;DHT22;11709;52.420;10.538;2022-08-19T04:39:30;18.30;99.90
23083;DHT22;11709;52.420;10.538;2022-08-19T04:43:32;18.40;99.90
23083;DHT22;11709;52.420;10.538;2022-08-19T04:47:36;18.40;99.90
23083;DHT22;11709;52.420;10.538;2022-08-19T04:51:41;18.40;99.90
23083;DHT22;11709;52.420;10.538;2022-08-19T04:55:43;18.50;99.90
23083;DHT22;11709;52.420;10.538;2022-08-19T04:59:46;18.40;99.90
23083;DHT22;11709;52.420;10.538;2022-08-19T05:03:49;18.40;99.90
23083;DHT22;11709;52.420;10.538;2022-08-19T05:07:52;18.30;99.90
23083;DHT22;11709;52.420;10.538;2022-08-19T05:11:54;18.40;99.90
23083;DHT22;11709;52.420;10.538;2022-08-19T05:15:58;18.40;99.90
23083;DHT22;11709;52.420;10.538;2022-08-19T05:20:02;18.40;99.90
23083;DHT22;11709;52.420;10.538;2022-08-19T05:24:23;18.40;99.90
23083;DHT22;11709;52.420;10.538;2022-08-19T05:28:27;18.60;99.90
23083;DHT22;11709;52.420;10.538;2022-08-19T05:32:29;18.50;99.90
23083;DHT22;11709;52.420;10.538;2022-08-19T05:36:38;18.50;99.90
23083;DHT22;11709;52.420;10.538;2022-08-19T05:40:44;18.60;99.90
23083;DHT22;11709;52.420;10.538;2022-08-19T05:44:50;18.60;99.90
23083;DHT22;11709;52.420;10.538;2022-08-19T05:48:53;18.50;99.90
23083;DHT22;11709;52.420;10.538;2022-08-19T05:52:57;18.50;99.90
23083;DHT22;11709;52.420;10.538;2022-08-19T05:57:01;18.50;99.90
23083;DHT22;11709;52.420;10.538;2022-08-19T06:01:08;18.50;99.90
23083;DHT22;11709;52.420;10.538;2022-08-19T06:05:09;18.50;99.90
23083;DHT22;11709;52.420;10.538;2022-08-19T06:09:12;18.50;99.90
23083;DHT22;11709;52.420;10.538;2022-08-19T06:13:14;18.50;99.90
23083;DHT22;11709;52.420;10.538;2022-08-19T06:17:17;18.50;99.90
23083;DHT22;11709;52.420;10.538;2022-08-19T06:21:24;18.50;99.90
23083;DHT22;11709;52.420;10.538;2022-08-19T06:25:28;18.50;99.90
23083;DHT22;11709;52.420;10.538;2022-08-19T06:29:31;18.40;99.90
23083;DHT22;11709;52.420;10.538;2022-08-19T06:33:35;18.50;99.90
23083;DHT22;11709;52.420;10.538;2022-08-19T06:37:38;18.50;99.90
23083;DHT22;11709;52.420;10.538;2022-08-19T06:41:43;18.50;99.90
23083;DHT22;11709;52.420;10.538;2022-08-19T06:45:46;18.50;99.90
23083;DHT22;11709;52.420;10.538;2022-08-19T06:49:48;18.40;99.90
23083;DHT22;11709;52.420;10.538;2022-08-19T06:53:52;18.50;99.90
23083;DHT22;11709;52.420;10.538;2022-08-19T06:57:55;18.50;99.90
23083;DHT22;11709;52.420;10.538;2022-08-19T07:01:59;18.60;99.90
23083;DHT22;11709;52.420;10.538;2022-08-19T07:06:06;18.60;99.90
23083;DHT22;11709;52.420;10.538;2022-08-19T07:10:10;18.60;99.90
23083;DHT22;11709;52.420;10.538;2022-08-19T07:14:13;18.60;99.90
23083;DHT22;11709;52.420;10.538;2022-08-19T07:18:19;18.70;99.90
23083;DHT22;11709;52.420;10.538;2022-08-19T07:22:22;18.70;99.90
23083;DHT22;11709;52.420;10.538;2022-08-19T07:26:28;18.70;99.90
23083;DHT22;11709;52.420;10.538;2022-08-19T07:30:31;18.80;99.90
23083;DHT22;11709;52.420;10.538;2022-08-19T07:34:34;18.80;99.90
23083;DHT22;11709;52.420;10.538;2022-08-19T07:38:40;18.90;99.90
23083;DHT22;11709;52.420;10.538;2022-08-19T07:42:43;18.90;99.90
23083;DHT22;11709;52.420;10.538;2022-08-19T07:46:48;18.90;99.90
23083;DHT22;11709;52.420;10.538;2022-08-19T07:50:53;19.00;99.90
23083;DHT22;11709;52.420;10.538;2022-08-19T07:54:56;19.10;99.90
23083;DHT22;11709;52.420;10.538;2022-08-19T07:58:58;19.10;99.90
23083;DHT22;11709;52.420;10.538;2022-08-19T08:03:02;19.10;99.90
23083;DHT22;11709;52.420;10.538;2022-08-19T08:07:06;19.10;99.90
23083;DHT22;11709;52.420;10.538;2022-08-19T08:11:26;19.20;99.90
23083;DHT22;11709;52.420;10.538;2022-08-19T08:15:29;19.20;99.90
23083;DHT22;11709;52.420;10.538;2022-08-19T08:19:32;19.30;99.90
23083;DHT22;11709;52.420;10.538;2022-08-19T08:23:35;19.30;99.90
23083;DHT22;11709;52.420;10.538;2022-08-19T08:27:39;19.40;99.90
23083;DHT22;11709;52.420;10.538;2022-08-19T08:31:43;19.30;99.90
23083;DHT22;11709;52.420;10.538;2022-08-19T08:35:46;19.50;99.90
23083;DHT22;11709;52.420;10.538;2022-08-19T08:39:49;19.50;99.90
23083;DHT22;11709;52.420;10.538;2022-08-19T08:43:52;19.60;99.90
23083;DHT22;11709;52.420;10.538;2022-08-19T08:47:57;19.60;99.90
23083;DHT22;11709;52.420;10.538;2022-08-19T08:52:15;19.70;99.90
23083;DHT22;11709;52.420;10.538;2022-08-19T08:56:16;19.80;99.90
23083;DHT22;11709;52.420;10.538;2022-08-19T09:00:25;19.90;99.90
23083;DHT22;11709;52.420;10.538;2022-08-19T09:04:28;19.80;99.90
23083;DHT22;11709;52.420;10.538;2022-08-19T09:08:40;19.90;99.90
23083;DHT22;11709;52.420;10.538;2022-08-19T09:17:04;20.10;99.90
23083;DHT22;11709;52.420;10.538;2022-08-19T09:21:09;20.40;99.90
23083;DHT22;11709;52.420;10.538;2022-08-19T09:25:14;20.50;99.90
23083;DHT22;11709;52.420;10.538;2022-08-19T09:29:16;20.50;99.90
23083;DHT22;11709;52.420;10.538;2022-08-19T09:33:19;20.40;99.90
23083;DHT22;11709;52.420;10.538;2022-08-19T09:37:22;20.50;99.90
23083;DHT22;11709;52.420;10.538;2022-08-19T09:41:25;20.40;99.90
23083;DHT22;11709;52.420;10.538;2022-08-19T09:45:28;20.50;99.90
23083;DHT22;11709;52.420;10.538;2022-08-19T09:49:31;20.30;99.90
23083;DHT22;11709;52.420;10.538;2022-08-19T09:53:33;20.30;99.90
23083;DHT22;11709;52.420;10.538;2022-08-19T09:57:36;20.20;99.90
23083;DHT22;11709;52.420;10.538;2022-08-19T10:01:39;20.20;99.90
23083;DHT22;11709;52.420;10.538;2022-08-19T10:05:41;20.20;99.90
23083;DHT22;11709;52.420;10.538;2022-08-19T10:09:50;20.20;99.90
23083;DHT22;11709;52.420;10.538;2022-08-19T10:13:53;20.10;99.90
23083;DHT22;11709;52.420;10.538;2022-08-19T10:17:56;20.20;99.90
23083;DHT22;11709;52.420;10.538;2022-08-19T10:22:04;20.20;99.90
23083;DHT22;11709;52.420;10.538;2022-08-19T10:26:08;20.20;99.90
23083;DHT22;11709;52.420;10.538;2022-08-19T10:30:11;20.20;99.90
23083;DHT22;11709;52.420;10.538;2022-08-19T10:34:14;20.20;99.90
23083;DHT22;11709;52.420;10.538;2022-08-19T10:38:17;20.20;99.90
23083;DHT22;11709;52.420;10.538;2022-08-19T10:42:19;20.30;99.90
23083;DHT22;11709;52.420;10.538;2022-08-19T10:46:24;20.30;99.90
23083;DHT22;11709;52.420;10.538;2022-08-19T10:50:27;20.50;99.90
23083;DHT22;11709;52.420;10.538;2022-08-19T10:54:47;20.50;99.90
23083;DHT22;11709;52.420;10.538;2022-08-19T10:59:07;20.70;99.90
23083;DHT22;11709;52.420;10.538;2022-08-19T11:03:10;20.70;99.90
23083;DHT22;11709;52.420;10.538;2022-08-19T11:07:13;20.80;99.90
23083;DHT22;11709;52.420;10.538;2022-08-19T11:11:15;20.70;99.90
23083;DHT22;11709;52.420;10.538;2022-08-19T11:15:18;20.90;99.90
23083;DHT22;11709;52.420;10.538;2022-08-19T11:19:20;21.20;99.90
23083;DHT22;11709;52.420;10.538;2022-08-19T11:23:24;21.30;99.90
23083;DHT22;11709;52.420;10.538;2022-08-19T11:27:27;21.30;99.90
23083;DHT22;11709;52.420;10.538;2022-08-19T11:31:33;21.50;99.90
23083;DHT22;11709;52.420;10.538;2022-08-19T11:35:39;21.60;99.90
23083;DHT22;11709;52.420;10.538;2022-08-19T11:39:42;21.80;99.90
23083;DHT22;11709;52.420;10.538;2022-08-19T11:43:45;21.70;99.90
23083;DHT22;11709;52.420;10.538;2022-08-19T11:47:47;21.80;99.90
23083;DHT22;11709;52.420;10.538;2022-08-19T11:51:50;21.80;99.90
23083;DHT22;11709;52.420;10.538;2022-08-19T11:55:53;21.80;99.90
23083;DHT22;11709;52.420;10.538;2022-08-19T11:59:57;21.80;99.90
23083;DHT22;11709;52.420;10.538;2022-08-19T12:04:00;21.70;99.90
23083;DHT22;11709;52.420;10.538;2022-08-19T12:08:03;22.00;99.90
23083;DHT22;11709;52.420;10.538;2022-08-19T12:12:05;22.20;99.90
23083;DHT22;11709;52.420;10.538;2022-08-19T12:16:15;22.50;99.90
23083;DHT22;11709;52.420;10.538;2022-08-19T12:20:16;22.70;99.90
23083;DHT22;11709;52.420;10.538;2022-08-19T12:24:19;22.90;99.90
23083;DHT22;11709;52.420;10.538;2022-08-19T12:28:24;23.20;99.90
23083;DHT22;11709;52.420;10.538;2022-08-19T12:32:27;23.60;99.90
23083;DHT22;11709;52.420;10.538;2022-08-19T12:36:29;24.00;99.90
23083;DHT22;11709;52.420;10.538;2022-08-19T12:40:32;24.30;99.90
23083;DHT22;11709;52.420;10.538;2022-08-19T12:44:36;24.50;99.90
23083;DHT22;11709;52.420;10.538;2022-08-19T12:48:38;24.50;99.90
23083;DHT22;11709;52.420;10.538;2022-08-19T12:52:43;24.50;99.90
23083;DHT22;11709;52.420;10.538;2022-08-19T12:56:45;24.50;99.90
23083;DHT22;11709;52.420;10.538;2022-08-19T13:00:48;24.70;99.90
23083;DHT22;11709;52.420;10.538;2022-08-19T13:04:51;24.80;99.90
23083;DHT22;11709;52.420;10.538;2022-08-19T13:08:54;24.90;99.90
23083;DHT22;11709;52.420;10.538;2022-08-19T13:12:57;24.90;99.90
23083;DHT22;11709;52.420;10.538;2022-08-19T13:17:01;25.10;99.90
23083;DHT22;11709;52.420;10.538;2022-08-19T13:21:08;25.30;99.90
23083;DHT22;11709;52.420;10.538;2022-08-19T13:25:13;25.50;99.90
23083;DHT22;11709;52.420;10.538;2022-08-19T13:29:18;25.80;99.90
23083;DHT22;11709;52.420;10.538;2022-08-19T13:33:39;25.50;99.90
23083;DHT22;11709;52.420;10.538;2022-08-19T13:37:41;25.90;99.90
23083;DHT22;11709;52.420;10.538;2022-08-19T13:41:45;26.10;99.90
23083;DHT22;11709;52.420;10.538;2022-08-19T13:45:53;26.20;99.90
23083;DHT22;11709;52.420;10.538;2022-08-19T13:49:57;26.90;99.90
23083;DHT22;11709;52.420;10.538;2022-08-19T13:53:59;27.10;99.90
23083;DHT22;11709;52.420;10.538;2022-08-19T13:58:02;28.20;99.90
23083;DHT22;11709;52.420;10.538;2022-08-19T14:02:04;29.10;99.90
23083;DHT22;11709;52.420;10.538;2022-08-19T14:06:07;29.30;99.90
23083;DHT22;11709;52.420;10.538;2022-08-19T14:10:11;29.90;99.90
23083;DHT22;11709;52.420;10.538;2022-08-19T14:14:14;29.30;99.90
23083;DHT22;11709;52.420;10.538;2022-08-19T14:18:17;29.80;99.90
23083;DHT22;11709;52.420;10.538;2022-08-19T14:22:20;29.90;99.90
23083;DHT22;11709;52.420;10.538;2022-08-19T14:26:22;29.90;99.90
23083;DHT22;11709;52.420;10.538;2022-08-19T14:30:32;29.50;99.90
23083;DHT22;11709;52.420;10.538;2022-08-19T14:34:30;30.00;99.90
23083;DHT22;11709;52.420;10.538;2022-08-19T14:38:35;31.00;99.90
23083;DHT22;11709;52.420;10.538;2022-08-19T14:42:38;31.30;99.90
23083;DHT22;11709;52.420;10.538;2022-08-19T14:46:40;30.90;99.90
23083;DHT22;11709;52.420;10.538;2022-08-19T14:50:43;31.10;99.90
23083;DHT22;11709;52.420;10.538;2022-08-19T14:54:45;30.50;99.90
23083;DHT22;11709;52.420;10.538;2022-08-19T14:58:48;30.10;99.90
23083;DHT22;11709;52.420;10.538;2022-08-19T15:02:52;30.10;99.90
23083;DHT22;11709;52.420;10.538;2022-08-19T15:06:55;30.10;99.90
23083;DHT22;11709;52.420;10.538;2022-08-19T15:10:59;30.60;99.90
23083;DHT22;11709;52.420;10.538;2022-08-19T15:15:01;30.90;99.90
23083;DHT22;11709;52.420;10.538;2022-08-19T15:19:04;31.10;99.90
23083;DHT22;11709;52.420;10.538;2022-08-19T15:23:06;30.90;99.90
23083;DHT22;11709;52.420;10.538;2022-08-19T15:27:09;31.20;99.90
23083;DHT22;11709;52.420;10.538;2022-08-19T15:31:12;31.30;99.90
23083;DHT22;11709;52.420;10.538;2022-08-19T15:35:15;31.50;99.90
23083;DHT22;11709;52.420;10.538;2022-08-19T15:39:19;30.30;99.90
23083;DHT22;11709;52.420;10.538;2022-08-19T15:43:22;30.80;99.90
23083;DHT22;11709;52.420;10.538;2022-08-19T15:47:24;30.60;99.90
23083;DHT22;11709;52.420;10.538;2022-08-19T15:51:29;29.30;99.90
23083;DHT22;11709;52.420;10.538;2022-08-19T15:55:35;29.10;99.90
23083;DHT22;11709;52.420;10.538;2022-08-19T15:59:38;29.60;99.90
23083;DHT22;11709;52.420;10.538;2022-08-19T16:03:59;29.50;99.90
23083;DHT22;11709;52.420;10.538;2022-08-19T16:08:20;29.50;99.90
23083;DHT22;11709;52.420;10.538;2022-08-19T16:12:22;28.90;99.90
23083;DHT22;11709;52.420;10.538;2022-08-19T16:16:29;28.50;99.90
23083;DHT22;11709;52.420;10.538;2022-08-19T16:20:32;28.50;99.90
23083;DHT22;11709;52.420;10.538;2022-08-19T16:24:35;28.60;99.90
23083;DHT22;11709;52.420;10.538;2022-08-19T16:28:39;28.40;99.90
23083;DHT22;11709;52.420;10.538;2022-08-19T16:32:44;28.20;99.90
23083;DHT22;11709;52.420;10.538;2022-08-19T16:36:47;28.20;99.90
23083;DHT22;11709;52.420;10.538;2022-08-19T16:40:50;27.90;99.90
23083;DHT22;11709;52.420;10.538;2022-08-19T16:44:57;27.80;99.90
23083;DHT22;11709;52.420;10.538;2022-08-19T16:48:59;27.50;99.90
23083;DHT22;11709;52.420;10.538;2022-08-19T16:53:02;27.30;99.90
23083;DHT22;11709;52.420;10.538;2022-08-19T16:57:06;27.00;99.90
23083;DHT22;11709;52.420;10.538;2022-08-19T17:01:09;26.90;99.90
23083;DHT22;11709;52.420;10.538;2022-08-19T17:05:11;26.70;99.90
23083;DHT22;11709;52.420;10.538;2022-08-19T17:09:15;26.60;99.90
23083;DHT22;11709;52.420;10.538;2022-08-19T17:13:19;26.40;99.90
23083;DHT22;11709;52.420;10.538;2022-08-19T17:17:22;26.30;99.90
23083;DHT22;11709;52.420;10.538;2022-08-19T17:21:27;26.10;99.90
23083;DHT22;11709;52.420;10.538;2022-08-19T17:25:31;25.90;99.90
23083;DHT22;11709;52.420;10.538;2022-08-19T17:29:34;25.80;99.90
23083;DHT22;11709;52.420;10.538;2022-08-19T17:33:36;25.50;99.90
23083;DHT22;11709;52.420;10.538;2022-08-19T17:37:39;25.40;99.90
23083;DHT22;11709;52.420;10.538;2022-08-19T17:41:42;25.30;99.90
23083;DHT22;11709;52.420;10.538;2022-08-19T17:45:45;25.10;99.90
23083;DHT22;11709;52.420;10.538;2022-08-19T17:49:48;25.00;99.90
23083;DHT22;11709;52.420;10.538;2022-08-19T17:53:52;24.80;99.90
23083;DHT22;11709;52.420;10.538;2022-08-19T17:57:55;24.60;99.90
23083;DHT22;11709;52.420;10.538;2022-08-19T18:01:58;24.40;99.90
23083;DHT22;11709;52.420;10.538;2022-08-19T18:06:01;24.30;99.90
23083;DHT22;11709;52.420;10.538;2022-08-19T18:10:04;24.20;99.90
23083;DHT22;11709;52.420;10.538;2022-08-19T18:14:06;23.90;99.90
23083;DHT22;11709;52.420;10.538;2022-08-19T18:18:09;23.90;99.90
23083;DHT22;11709;52.420;10.538;2022-08-19T18:22:24;23.80;99.90
23083;DHT22;11709;52.420;10.538;2022-08-19T18:26:27;23.70;99.90
23083;DHT22;11709;52.420;10.538;2022-08-19T18:30:32;23.70;99.90
23083;DHT22;11709;52.420;10.538;2022-08-19T18:34:35;23.50;99.90
23083;DHT22;11709;52.420;10.538;2022-08-19T18:38:38;23.30;99.90
23083;DHT22;11709;52.420;10.538;2022-08-19T18:42:58;23.00;99.90
23083;DHT22;11709;52.420;10.538;2022-08-19T18:47:05;22.90;99.90
23083;DHT22;11709;52.420;10.538;2022-08-19T18:51:25;22.90;99.90
23083;DHT22;11709;52.420;10.538;2022-08-19T18:55:31;22.70;99.90
23083;DHT22;11709;52.420;10.538;2022-08-19T18:59:33;22.60;99.90
23083;DHT22;11709;52.420;10.538;2022-08-19T19:03:38;22.50;99.90
23083;DHT22;11709;52.420;10.538;2022-08-19T19:07:45;22.40;99.90
23083;DHT22;11709;52.420;10.538;2022-08-19T19:11:54;22.20;99.90
23083;DHT22;11709;52.420;10.538;2022-08-19T19:15:53;22.10;99.90
23083;DHT22;11709;52.420;10.538;2022-08-19T19:19:55;22.00;99.90
23083;DHT22;11709;52.420;10.538;2022-08-19T19:23:58;21.90;99.90
23083;DHT22;11709;52.420;10.538;2022-08-19T19:28:00;21.80;99.90
23083;DHT22;11709;52.420;10.538;2022-08-19T19:32:06;21.70;99.90
23083;DHT22;11709;52.420;10.538;2022-08-19T19:36:08;21.60;99.90
23083;DHT22;11709;52.420;10.538;2022-08-19T19:40:11;21.60;99.90
23083;DHT22;11709;52.420;10.538;2022-08-19T19:44:13;21.60;99.90
23083;DHT22;11709;52.420;10.538;2022-08-19T19:48:17;21.50;99.90
23083;DHT22;11709;52.420;10.538;2022-08-19T19:52:20;21.40;99.90
23083;DHT22;11709;52.420;10.538;2022-08-19T19:56:23;21.30;99.90
23083;DHT22;11709;52.420;10.538;2022-08-19T20:00:25;21.20;99.90
23083;DHT22;11709;52.420;10.538;2022-08-19T20:04:28;21.20;99.90
23083;DHT22;11709;52.420;10.538;2022-08-19T20:08:30;21.20;99.90
23083;DHT22;11709;52.420;10.538;2022-08-19T20:12:50;21.10;99.90
23083;DHT22;11709;52.420;10.538;2022-08-19T20:16:55;21.00;99.90
23083;DHT22;11709;52.420;10.538;2022-08-19T20:20:59;21.00;99.90
23083;DHT22;11709;52.420;10.538;2022-08-19T20:25:01;20.90;99.90
23083;DHT22;11709;52.420;10.538;2022-08-19T20:29:04;20.90;99.90
23083;DHT22;11709;52.420;10.538;2022-08-19T20:33:07;20.90;99.90
23083;DHT22;11709;52.420;10.538;2022-08-19T20:37:09;20.90;99.90
23083;DHT22;11709;52.420;10.538;2022-08-19T20:41:13;20.90;99.90
23083;DHT22;11709;52.420;10.538;2022-08-19T20:45:17;20.90;99.90
23083;DHT22;11709;52.420;10.538;2022-08-19T20:49:22;20.80;99.90
23083;DHT22;11709;52.420;10.538;2022-08-19T20:53:25;20.70;99.90
23083;DHT22;11709;52.420;10.538;2022-08-19T20:57:28;20.60;99.90
23083;DHT22;11709;52.420;10.538;2022-08-19T21:01:30;20.40;99.90
23083;DHT22;11709;52.420;10.538;2022-08-19T21:05:33;20.40;99.90
23083;DHT22;11709;52.420;10.538;2022-08-19T21:09:35;20.40;99.90
23083;DHT22;11709;52.420;10.538;2022-08-19T21:13:38;20.50;99.90
23083;DHT22;11709;52.420;10.538;2022-08-19T21:17:41;20.40;99.90
23083;DHT22;11709;52.420;10.538;2022-08-19T21:21:43;20.40;99.90
23083;DHT22;11709;52.420;10.538;2022-08-19T21:25:46;20.30;99.90
23083;DHT22;11709;52.420;10.538;2022-08-19T21:29:49;20.30;99.90
23083;DHT22;11709;52.420;10.538;2022-08-19T21:33:52;20.20;99.90
23083;DHT22;11709;52.420;10.538;2022-08-19T21:37:54;20.20;99.90
23083;DHT22;11709;52.420;10.538;2022-08-19T21:41:57;20.10;99.90
23083;DHT22;11709;52.420;10.538;2022-08-19T21:46:00;20.10;99.90
23083;DHT22;11709;52.420;10.538;2022-08-19T21:50:04;20.00;99.90
23083;DHT22;11709;52.420;10.538;2022-08-19T21:54:07;19.80;99.90
23083;DHT22;11709;52.420;10.538;2022-08-19T21:58:11;19.80;99.90
23083;DHT22;11709;52.420;10.538;2022-08-19T22:02:13;19.80;99.90
23083;DHT22;11709;52.420;10.538;2022-08-19T22:06:17;19.70;99.90
23083;DHT22;11709;52.420;10.538;2022-08-19T22:10:20;19.70;99.90
23083;DHT22;11709;52.420;10.538;2022-08-19T22:14:24;19.70;99.90
23083;DHT22;11709;52.420;10.538;2022-08-19T22:18:26;19.70;99.90
23083;DHT22;11709;52.420;10.538;2022-08-19T22:22:31;19.70;99.90
23083;DHT22;11709;52.420;10.538;2022-08-19T22:26:34;19.60;99.90
23083;DHT22;11709;52.420;10.538;2022-08-19T22:30:39;19.70;99.90
23083;DHT22;11709;52.420;10.538;2022-08-19T22:34:42;19.70;99.90
23083;DHT22;11709;52.420;10.538;2022-08-19T22:38:44;19.60;99.90
23083;DHT22;11709;52.420;10.538;2022-08-19T22:42:47;19.60;99.90
23083;DHT22;11709;52.420;10.538;2022-08-19T22:46:49;19.60;99.90
23083;DHT22;11709;52.420;10.538;2022-08-19T22:50:52;19.60;99.90
23083;DHT22;11709;52.420;10.538;2022-08-19T22:55:12;19.50;99.90
23083;DHT22;11709;52.420;10.538;2022-08-19T22:59:14;19.50;99.90
23083;DHT22;11709;52.420;10.538;2022-08-19T23:03:17;19.60;99.90
23083;DHT22;11709;52.420;10.538;2022-08-19T23:07:20;19.50;99.90
23083;DHT22;11709;52.420;10.538;2022-08-19T23:11:23;19.60;99.90
23083;DHT22;11709;52.420;10.538;2022-08-19T23:15:28;19.60;99.90
23083;DHT22;11709;52.420;10.538;2022-08-19T23:19:31;19.50;99.90
23083;DHT22;11709;52.420;10.538;2022-08-19T23:23:34;19.50;99.90
23083;DHT22;11709;52.420;10.538;2022-08-19T23:27:37;19.50;99.90
23083;DHT22;11709;52.420;10.538;2022-08-19T23:31:58;19.50;99.90
23083;DHT22;11709;52.420;10.538;2022-08-19T23:36:07;19.40;99.90
23083;DHT22;11709;52.420;10.538;2022-08-19T23:40:07;19.40;99.90
23083;DHT22;11709;52.420;10.538;2022-08-19T23:44:09;19.40;99.90
23083;DHT22;11709;52.420;10.538;2022-08-19T23:48:12;19.40;99.90
23083;DHT22;11709;52.420;10.538;2022-08-19T23:52:16;19.30;99.90
23083;DHT22;11709;52.420;10.538;2022-08-19T23:56:19;19.30;99.90
